sensor_id;sensor_type;location;lat;lon;timestamp;temperature;humidity
66144;SHT31;52947;50.842;6.084;2023-10-09T00:00:14;17.87;83.13
66144;SHT31;52947;50.842;6.084;2023-10-09T00:03:19;17.85;82.90
66144;SHT31;52947;50.842;6.084;2023-10-09T00:05:50;17.80;83.00
66144;SHT31;52947;50.842;6.084;2023-10-09T00:08:20;17.86;83.16
66144;SHT31;52947;50.842;6.084;2023-10-09T00:10:49;17.79;83.21
66144;SHT31;52947;50.842;6.084;2023-10-09T00:13:20;17.70;83.65
66144;SHT31;52947;50.842;6.084;2023-10-09T00:15:55;17.66;83.54
66144;SHT31;52947;50.842;6.084;2023-10-09T00:18:29;17.68;83.65
66144;SHT31;52947;50.842;6.084;2023-10-09T00:20:57;17.68;84.00
66144;SHT31;52947;50.842;6.084;2023-10-09T00:23:38;17.79;83.67
66144;SHT31;52947;50.842;6.084;2023-10-09T00:26:06;17.66;83.26
66144;SHT31;52947;50.842;6.084;2023-10-09T00:28:47;17.73;83.69
66144;SHT31;52947;50.842;6.084;2023-10-09T00:31:17;17.73;83.53
66144;SHT31;52947;50.842;6.084;2023-10-09T00:33:56;17.76;83.26
66144;SHT31;52947;50.842;6.084;2023-10-09T00:36:30;17.69;83.61
66144;SHT31;52947;50.842;6.084;2023-10-09T00:38:59;17.63;83.62
66144;SHT31;52947;50.842;6.084;2023-10-09T00:41:39;17.61;83.94
66144;SHT31;52947;50.842;6.084;2023-10-09T00:44:08;17.68;84.05
66144;SHT31;52947;50.842;6.084;2023-10-09T00:46:38;17.70;83.83
66144;SHT31;52947;50.842;6.084;2023-10-09T00:49:10;17.72;83.83
66144;SHT31;52947;50.842;6.084;2023-10-09T00:51:47;17.70;83.89
66144;SHT31;52947;50.842;6.084;2023-10-09T00:54:23;17.70;83.80
66144;SHT31;52947;50.842;6.084;2023-10-09T00:56:55;17.68;83.77
66144;SHT31;52947;50.842;6.084;2023-10-09T00:59:34;17.63;84.03
66144;SHT31;52947;50.842;6.084;2023-10-09T01:02:05;17.68;84.11
66144;SHT31;52947;50.842;6.084;2023-10-09T01:04:35;17.53;84.29
66144;SHT31;52947;50.842;6.084;2023-10-09T01:07:08;17.51;84.50
66144;SHT31;52947;50.842;6.084;2023-10-09T01:09:42;17.51;84.51
66144;SHT31;52947;50.842;6.084;2023-10-09T01:12:11;17.55;84.44
66144;SHT31;52947;50.842;6.084;2023-10-09T01:14:45;17.58;84.19
66144;SHT31;52947;50.842;6.084;2023-10-09T01:17:19;17.52;84.41
66144;SHT31;52947;50.842;6.084;2023-10-09T01:20:06;17.42;84.63
66144;SHT31;52947;50.842;6.084;2023-10-09T01:22:41;17.38;85.00
66144;SHT31;52947;50.842;6.084;2023-10-09T01:25:11;17.41;85.10
66144;SHT31;52947;50.842;6.084;2023-10-09T01:27:39;17.36;84.91
66144;SHT31;52947;50.842;6.084;2023-10-09T01:30:09;17.39;84.97
66144;SHT31;52947;50.842;6.084;2023-10-09T01:32:41;17.41;84.82
66144;SHT31;52947;50.842;6.084;2023-10-09T01:35:10;17.38;85.15
66144;SHT31;52947;50.842;6.084;2023-10-09T01:37:48;17.45;84.92
66144;SHT31;52947;50.842;6.084;2023-10-09T01:40:19;17.49;84.82
66144;SHT31;52947;50.842;6.084;2023-10-09T01:43:02;17.49;84.75
66144;SHT31;52947;50.842;6.084;2023-10-09T01:45:30;17.63;84.66
66144;SHT31;52947;50.842;6.084;2023-10-09T01:48:09;17.78;84.54
66144;SHT31;52947;50.842;6.084;2023-10-09T01:50:39;17.75;84.19
66144;SHT31;52947;50.842;6.084;2023-10-09T01:53:09;17.78;84.28
66144;SHT31;52947;50.842;6.084;2023-10-09T01:55:45;17.80;84.65
66144;SHT31;52947;50.842;6.084;2023-10-09T01:58:13;17.82;84.07
66144;SHT31;52947;50.842;6.084;2023-10-09T02:00:51;17.82;84.07
66144;SHT31;52947;50.842;6.084;2023-10-09T02:03:24;17.90;83.97
66144;SHT31;52947;50.842;6.084;2023-10-09T02:05:54;17.93;83.97
66144;SHT31;52947;50.842;6.084;2023-10-09T02:08:27;17.97;83.99
66144;SHT31;52947;50.842;6.084;2023-10-09T02:11:04;18.01;84.18
66144;SHT31;52947;50.842;6.084;2023-10-09T02:13:34;18.03;83.81
66144;SHT31;52947;50.842;6.084;2023-10-09T02:16:02;18.03;83.77
66144;SHT31;52947;50.842;6.084;2023-10-09T02:18:41;18.03;83.70
66144;SHT31;52947;50.842;6.084;2023-10-09T02:21:39;18.00;83.83
66144;SHT31;52947;50.842;6.084;2023-10-09T02:24:08;18.01;83.90
66144;SHT31;52947;50.842;6.084;2023-10-09T02:26:54;18.09;83.95
66144;SHT31;52947;50.842;6.084;2023-10-09T02:29:35;18.06;83.84
66144;SHT31;52947;50.842;6.084;2023-10-09T02:32:05;18.14;83.92
66144;SHT31;52947;50.842;6.084;2023-10-09T02:34:43;18.18;83.57
66144;SHT31;52947;50.842;6.084;2023-10-09T02:37:13;18.30;82.99
66144;SHT31;52947;50.842;6.084;2023-10-09T02:39:41;18.30;82.91
66144;SHT31;52947;50.842;6.084;2023-10-09T02:42:15;18.27;82.99
66144;SHT31;52947;50.842;6.084;2023-10-09T02:44:52;18.27;83.34
66144;SHT31;52947;50.842;6.084;2023-10-09T02:47:22;18.43;82.82
66144;SHT31;52947;50.842;6.084;2023-10-09T02:49:56;18.38;82.83
66144;SHT31;52947;50.842;6.084;2023-10-09T02:52:27;18.40;82.79
66144;SHT31;52947;50.842;6.084;2023-10-09T02:55:00;18.27;82.66
66144;SHT31;52947;50.842;6.084;2023-10-09T02:57:34;18.11;82.92
66144;SHT31;52947;50.842;6.084;2023-10-09T03:00:05;18.09;83.13
66144;SHT31;52947;50.842;6.084;2023-10-09T03:02:44;18.01;83.32
66144;SHT31;52947;50.842;6.084;2023-10-09T03:05:17;18.18;83.28
66144;SHT31;52947;50.842;6.084;2023-10-09T03:07:45;18.00;82.89
66144;SHT31;52947;50.842;6.084;2023-10-09T03:10:13;18.20;82.91
66144;SHT31;52947;50.842;6.084;2023-10-09T03:12:43;18.14;82.81
66144;SHT31;52947;50.842;6.084;2023-10-09T03:15:11;18.18;83.13
66144;SHT31;52947;50.842;6.084;2023-10-09T03:17:39;18.29;82.73
66144;SHT31;52947;50.842;6.084;2023-10-09T03:20:10;18.27;81.89
66144;SHT31;52947;50.842;6.084;2023-10-09T03:22:41;18.20;82.74
66144;SHT31;52947;50.842;6.084;2023-10-09T03:25:09;18.23;82.24
66144;SHT31;52947;50.842;6.084;2023-10-09T03:27:43;18.09;82.67
66144;SHT31;52947;50.842;6.084;2023-10-09T03:30:13;18.06;82.46
66144;SHT31;52947;50.842;6.084;2023-10-09T03:32:50;17.93;82.42
66144;SHT31;52947;50.842;6.084;2023-10-09T03:35:19;17.89;82.84
66144;SHT31;52947;50.842;6.084;2023-10-09T03:37:53;17.80;82.99
66144;SHT31;52947;50.842;6.084;2023-10-09T03:40:24;17.73;83.08
66144;SHT31;52947;50.842;6.084;2023-10-09T03:42:53;17.70;83.23
66144;SHT31;52947;50.842;6.084;2023-10-09T03:45:21;17.49;83.60
66144;SHT31;52947;50.842;6.084;2023-10-09T03:47:54;17.35;84.03
66144;SHT31;52947;50.842;6.084;2023-10-09T03:50:29;17.27;84.18
66144;SHT31;52947;50.842;6.084;2023-10-09T03:53:04;17.19;84.47
66144;SHT31;52947;50.842;6.084;2023-10-09T03:55:39;17.14;84.59
66144;SHT31;52947;50.842;6.084;2023-10-09T03:58:10;17.01;84.85
66144;SHT31;52947;50.842;6.084;2023-10-09T04:00:40;16.97;85.16
66144;SHT31;52947;50.842;6.084;2023-10-09T04:03:14;16.83;85.35
66144;SHT31;52947;50.842;6.084;2023-10-09T04:05:43;16.70;85.82
66144;SHT31;52947;50.842;6.084;2023-10-09T04:08:11;16.67;85.86
66144;SHT31;52947;50.842;6.084;2023-10-09T04:10:47;16.73;85.67
66144;SHT31;52947;50.842;6.084;2023-10-09T04:13:25;16.69;85.80
66144;SHT31;52947;50.842;6.084;2023-10-09T04:16:01;16.90;86.09
66144;SHT31;52947;50.842;6.084;2023-10-09T04:18:37;17.04;85.06
66144;SHT31;52947;50.842;6.084;2023-10-09T04:21:06;17.11;84.94
66144;SHT31;52947;50.842;6.084;2023-10-09T04:23:46;17.18;84.85
66144;SHT31;52947;50.842;6.084;2023-10-09T04:26:32;17.22;84.45
66144;SHT31;52947;50.842;6.084;2023-10-09T04:29:03;17.24;84.72
66144;SHT31;52947;50.842;6.084;2023-10-09T04:31:33;17.24;84.41
66144;SHT31;52947;50.842;6.084;2023-10-09T04:34:04;17.24;84.29
66144;SHT31;52947;50.842;6.084;2023-10-09T04:36:58;17.22;84.53
66144;SHT31;52947;50.842;6.084;2023-10-09T04:39:27;17.17;84.53
66144;SHT31;52947;50.842;6.084;2023-10-09T04:42:14;17.17;84.50
66144;SHT31;52947;50.842;6.084;2023-10-09T04:45:06;17.24;84.58
66144;SHT31;52947;50.842;6.084;2023-10-09T04:48:06;17.19;84.26
66144;SHT31;52947;50.842;6.084;2023-10-09T04:50:36;17.18;84.34
66144;SHT31;52947;50.842;6.084;2023-10-09T04:53:12;17.11;84.56
66144;SHT31;52947;50.842;6.084;2023-10-09T04:55:55;17.11;84.46
66144;SHT31;52947;50.842;6.084;2023-10-09T04:58:24;17.07;84.65
66144;SHT31;52947;50.842;6.084;2023-10-09T05:00:54;17.06;84.61
66144;SHT31;52947;50.842;6.084;2023-10-09T05:03:40;17.03;84.77
66144;SHT31;52947;50.842;6.084;2023-10-09T05:06:12;17.10;84.69
66144;SHT31;52947;50.842;6.084;2023-10-09T05:09:10;17.04;84.66
66144;SHT31;52947;50.842;6.084;2023-10-09T05:11:40;17.04;84.61
66144;SHT31;52947;50.842;6.084;2023-10-09T05:14:41;17.03;84.72
66144;SHT31;52947;50.842;6.084;2023-10-09T05:17:31;17.08;84.59
66144;SHT31;52947;50.842;6.084;2023-10-09T05:20:01;17.07;84.81
66144;SHT31;52947;50.842;6.084;2023-10-09T05:22:49;17.01;84.72
66144;SHT31;52947;50.842;6.084;2023-10-09T05:25:44;17.01;84.69
66144;SHT31;52947;50.842;6.084;2023-10-09T05:28:22;16.98;84.59
66144;SHT31;52947;50.842;6.084;2023-10-09T05:30:52;16.97;84.82
66144;SHT31;52947;50.842;6.084;2023-10-09T05:33:30;16.98;84.63
66144;SHT31;52947;50.842;6.084;2023-10-09T05:36:02;17.03;84.65
66144;SHT31;52947;50.842;6.084;2023-10-09T05:38:44;16.91;84.62
66144;SHT31;52947;50.842;6.084;2023-10-09T05:41:21;16.92;84.90
66144;SHT31;52947;50.842;6.084;2023-10-09T05:44:14;16.95;85.22
66144;SHT31;52947;50.842;6.084;2023-10-09T05:46:59;16.88;84.87
66144;SHT31;52947;50.842;6.084;2023-10-09T05:49:43;16.85;84.81
66144;SHT31;52947;50.842;6.084;2023-10-09T05:52:22;16.84;84.94
66144;SHT31;52947;50.842;6.084;2023-10-09T05:55:16;16.77;84.93
66144;SHT31;52947;50.842;6.084;2023-10-09T05:58:08;16.84;84.81
66144;SHT31;52947;50.842;6.084;2023-10-09T06:00:58;16.85;85.28
66144;SHT31;52947;50.842;6.084;2023-10-09T06:03:44;16.81;84.75
66144;SHT31;52947;50.842;6.084;2023-10-09T06:06:23;16.84;84.62
66144;SHT31;52947;50.842;6.084;2023-10-09T06:09:01;16.80;84.82
66144;SHT31;52947;50.842;6.084;2023-10-09T06:11:53;16.81;84.56
66144;SHT31;52947;50.842;6.084;2023-10-09T06:14:43;16.91;84.26
66144;SHT31;52947;50.842;6.084;2023-10-09T06:17:16;16.83;84.48
66144;SHT31;52947;50.842;6.084;2023-10-09T06:19:51;16.88;84.43
66144;SHT31;52947;50.842;6.084;2023-10-09T06:22:27;16.88;84.84
66144;SHT31;52947;50.842;6.084;2023-10-09T06:25:12;16.94;84.15
66144;SHT31;52947;50.842;6.084;2023-10-09T06:27:44;16.98;84.05
66144;SHT31;52947;50.842;6.084;2023-10-09T06:30:24;17.06;83.86
66144;SHT31;52947;50.842;6.084;2023-10-09T06:32:53;17.06;83.86
66144;SHT31;52947;50.842;6.084;2023-10-09T06:35:47;17.14;83.74
66144;SHT31;52947;50.842;6.084;2023-10-09T06:38:36;17.22;83.47
66144;SHT31;52947;50.842;6.084;2023-10-09T06:41:19;17.22;83.22
66144;SHT31;52947;50.842;6.084;2023-10-09T06:44:01;17.27;83.07
66144;SHT31;52947;50.842;6.084;2023-10-09T06:46:35;17.27;83.55
66144;SHT31;52947;50.842;6.084;2023-10-09T06:49:11;17.29;83.07
66144;SHT31;52947;50.842;6.084;2023-10-09T06:52:00;17.39;83.57
66144;SHT31;52947;50.842;6.084;2023-10-09T06:54:43;17.53;83.36
66144;SHT31;52947;50.842;6.084;2023-10-09T06:57:35;17.65;82.85
66144;SHT31;52947;50.842;6.084;2023-10-09T07:00:16;17.63;82.87
66144;SHT31;52947;50.842;6.084;2023-10-09T07:03:01;17.63;83.16
66144;SHT31;52947;50.842;6.084;2023-10-09T07:05:38;17.55;83.14
66144;SHT31;52947;50.842;6.084;2023-10-09T07:08:27;17.46;83.51
66144;SHT31;52947;50.842;6.084;2023-10-09T07:11:05;17.42;83.48
66144;SHT31;52947;50.842;6.084;2023-10-09T07:14:05;17.46;83.43
66144;SHT31;52947;50.842;6.084;2023-10-09T07:16:33;17.41;83.47
66144;SHT31;52947;50.842;6.084;2023-10-09T07:19:05;17.56;83.73
66144;SHT31;52947;50.842;6.084;2023-10-09T07:21:52;17.63;83.58
66144;SHT31;52947;50.842;6.084;2023-10-09T07:24:21;17.76;83.18
66144;SHT31;52947;50.842;6.084;2023-10-09T07:27:06;17.65;82.92
66144;SHT31;52947;50.842;6.084;2023-10-09T07:29:37;17.58;83.53
66144;SHT31;52947;50.842;6.084;2023-10-09T07:32:14;17.58;83.31
66144;SHT31;52947;50.842;6.084;2023-10-09T07:34:47;17.61;83.43
66144;SHT31;52947;50.842;6.084;2023-10-09T07:37:26;17.59;83.28
66144;SHT31;52947;50.842;6.084;2023-10-09T07:39:57;17.52;83.31
66144;SHT31;52947;50.842;6.084;2023-10-09T07:42:27;17.55;83.29
66144;SHT31;52947;50.842;6.084;2023-10-09T07:45:11;17.62;83.28
66144;SHT31;52947;50.842;6.084;2023-10-09T07:48:14;17.63;83.04
66144;SHT31;52947;50.842;6.084;2023-10-09T07:50:43;17.78;83.02
66144;SHT31;52947;50.842;6.084;2023-10-09T07:53:16;17.72;82.93
66144;SHT31;52947;50.842;6.084;2023-10-09T07:55:45;17.65;83.10
66144;SHT31;52947;50.842;6.084;2023-10-09T07:58:22;17.62;83.34
66144;SHT31;52947;50.842;6.084;2023-10-09T08:00:53;17.73;82.95
66144;SHT31;52947;50.842;6.084;2023-10-09T08:03:49;17.76;83.07
66144;SHT31;52947;50.842;6.084;2023-10-09T08:06:28;17.78;83.00
66144;SHT31;52947;50.842;6.084;2023-10-09T08:09:30;17.93;83.32
66144;SHT31;52947;50.842;6.084;2023-10-09T08:12:14;18.00;82.25
66144;SHT31;52947;50.842;6.084;2023-10-09T08:15:04;17.89;82.55
66144;SHT31;52947;50.842;6.084;2023-10-09T08:17:51;17.99;82.53
66144;SHT31;52947;50.842;6.084;2023-10-09T08:20:22;17.97;82.24
66144;SHT31;52947;50.842;6.084;2023-10-09T08:22:52;18.16;81.93
66144;SHT31;52947;50.842;6.084;2023-10-09T08:25:23;18.23;82.01
66144;SHT31;52947;50.842;6.084;2023-10-09T08:27:56;18.20;81.68
66144;SHT31;52947;50.842;6.084;2023-10-09T08:30:27;18.26;81.92
66144;SHT31;52947;50.842;6.084;2023-10-09T08:33:08;18.23;81.76
66144;SHT31;52947;50.842;6.084;2023-10-09T08:35:57;18.18;82.18
66144;SHT31;52947;50.842;6.084;2023-10-09T08:38:32;18.20;82.14
66144;SHT31;52947;50.842;6.084;2023-10-09T08:41:07;18.20;82.08
66144;SHT31;52947;50.842;6.084;2023-10-09T08:43:50;18.26;81.84
66144;SHT31;52947;50.842;6.084;2023-10-09T08:46:21;18.29;81.85
66144;SHT31;52947;50.842;6.084;2023-10-09T08:48:50;18.40;81.57
66144;SHT31;52947;50.842;6.084;2023-10-09T08:51:18;18.48;81.23
66144;SHT31;52947;50.842;6.084;2023-10-09T08:53:47;18.61;80.70
66144;SHT31;52947;50.842;6.084;2023-10-09T08:56:17;18.78;80.41
66144;SHT31;52947;50.842;6.084;2023-10-09T08:58:50;18.99;80.02
66144;SHT31;52947;50.842;6.084;2023-10-09T09:01:21;19.03;79.92
66144;SHT31;52947;50.842;6.084;2023-10-09T09:03:53;19.08;79.57
66144;SHT31;52947;50.842;6.084;2023-10-09T09:06:25;19.26;79.33
66144;SHT31;52947;50.842;6.084;2023-10-09T09:08:54;19.52;78.70
66144;SHT31;52947;50.842;6.084;2023-10-09T09:11:26;19.66;78.60
66144;SHT31;52947;50.842;6.084;2023-10-09T09:14:02;20.17;77.09
66144;SHT31;52947;50.842;6.084;2023-10-09T09:16:34;20.32;76.59
66144;SHT31;52947;50.842;6.084;2023-10-09T09:19:05;20.71;75.35
66144;SHT31;52947;50.842;6.084;2023-10-09T09:21:49;21.89;73.20
66144;SHT31;52947;50.842;6.084;2023-10-09T09:24:22;22.49;71.21
66144;SHT31;52947;50.842;6.084;2023-10-09T09:27:01;22.46;70.68
66144;SHT31;52947;50.842;6.084;2023-10-09T09:29:41;22.50;70.14
66144;SHT31;52947;50.842;6.084;2023-10-09T09:32:30;22.66;70.27
66144;SHT31;52947;50.842;6.084;2023-10-09T09:35:04;22.97;68.99
66144;SHT31;52947;50.842;6.084;2023-10-09T09:37:52;22.83;67.87
66144;SHT31;52947;50.842;6.084;2023-10-09T09:40:21;23.08;67.54
66144;SHT31;52947;50.842;6.084;2023-10-09T09:43:01;23.45;66.46
66144;SHT31;52947;50.842;6.084;2023-10-09T09:45:34;23.54;65.91
66144;SHT31;52947;50.842;6.084;2023-10-09T09:48:04;24.24;63.85
66144;SHT31;52947;50.842;6.084;2023-10-09T09:50:33;24.50;62.86
66144;SHT31;52947;50.842;6.084;2023-10-09T09:53:11;25.01;62.00
66144;SHT31;52947;50.842;6.084;2023-10-09T09:55:46;25.59;61.54
66144;SHT31;52947;50.842;6.084;2023-10-09T09:58:19;25.69;60.05
66144;SHT31;52947;50.842;6.084;2023-10-09T10:00:50;26.48;60.53
66144;SHT31;52947;50.842;6.084;2023-10-09T10:03:26;25.16;60.14
66144;SHT31;52947;50.842;6.084;2023-10-09T10:05:56;24.57;62.20
66144;SHT31;52947;50.842;6.084;2023-10-09T10:08:25;24.56;61.75
66144;SHT31;52947;50.842;6.084;2023-10-09T10:10:59;24.31;62.50
66144;SHT31;52947;50.842;6.084;2023-10-09T10:13:55;24.10;62.22
66144;SHT31;52947;50.842;6.084;2023-10-09T10:16:28;24.37;62.17
66144;SHT31;52947;50.842;6.084;2023-10-09T10:19:04;23.76;62.39
66144;SHT31;52947;50.842;6.084;2023-10-09T10:21:49;23.93;62.50
66144;SHT31;52947;50.842;6.084;2023-10-09T10:24:41;23.56;63.04
66144;SHT31;52947;50.842;6.084;2023-10-09T10:27:22;23.73;63.30
66144;SHT31;52947;50.842;6.084;2023-10-09T10:30:28;23.96;63.09
66144;SHT31;52947;50.842;6.084;2023-10-09T10:33:03;24.12;62.21
66144;SHT31;52947;50.842;6.084;2023-10-09T10:35:41;24.16;62.11
66144;SHT31;52947;50.842;6.084;2023-10-09T10:38:29;23.87;61.68
66144;SHT31;52947;50.842;6.084;2023-10-09T10:41:13;23.58;62.17
66144;SHT31;52947;50.842;6.084;2023-10-09T10:43:44;23.75;62.66
66144;SHT31;52947;50.842;6.084;2023-10-09T10:46:22;23.55;62.08
66144;SHT31;52947;50.842;6.084;2023-10-09T10:49:06;23.28;62.27
66144;SHT31;52947;50.842;6.084;2023-10-09T10:51:49;23.38;62.89
66144;SHT31;52947;50.842;6.084;2023-10-09T10:54:28;23.27;62.52
66144;SHT31;52947;50.842;6.084;2023-10-09T10:57:29;23.41;62.21
66144;SHT31;52947;50.842;6.084;2023-10-09T11:00:12;23.38;61.93
66144;SHT31;52947;50.842;6.084;2023-10-09T11:03:00;23.34;62.35
66144;SHT31;52947;50.842;6.084;2023-10-09T11:05:41;23.19;62.26
66144;SHT31;52947;50.842;6.084;2023-10-09T11:08:11;23.15;62.01
66144;SHT31;52947;50.842;6.084;2023-10-09T11:10:40;22.97;61.91
66144;SHT31;52947;50.842;6.084;2023-10-09T11:13:26;22.80;62.17
66144;SHT31;52947;50.842;6.084;2023-10-09T11:16:04;22.71;63.09
66144;SHT31;52947;50.842;6.084;2023-10-09T11:18:55;22.74;63.44
66144;SHT31;52947;50.842;6.084;2023-10-09T11:21:30;22.74;63.31
66144;SHT31;52947;50.842;6.084;2023-10-09T11:24:09;22.83;63.65
66144;SHT31;52947;50.842;6.084;2023-10-09T11:26:51;22.88;63.62
66144;SHT31;52947;50.842;6.084;2023-10-09T11:29:23;22.84;62.90
66144;SHT31;52947;50.842;6.084;2023-10-09T11:31:58;22.90;63.51
66144;SHT31;52947;50.842;6.084;2023-10-09T11:34:28;22.88;62.83
66144;SHT31;52947;50.842;6.084;2023-10-09T11:37:00;22.88;62.08
66144;SHT31;52947;50.842;6.084;2023-10-09T11:39:31;23.05;63.48
66144;SHT31;52947;50.842;6.084;2023-10-09T11:42:02;23.21;62.68
66144;SHT31;52947;50.842;6.084;2023-10-09T11:44:38;23.34;62.57
66144;SHT31;52947;50.842;6.084;2023-10-09T11:47:08;23.35;62.46
66144;SHT31;52947;50.842;6.084;2023-10-09T11:49:52;23.18;63.26
66144;SHT31;52947;50.842;6.084;2023-10-09T11:52:32;23.21;63.24
66144;SHT31;52947;50.842;6.084;2023-10-09T11:55:05;23.12;64.09
66144;SHT31;52947;50.842;6.084;2023-10-09T11:57:35;23.24;62.69
66144;SHT31;52947;50.842;6.084;2023-10-09T12:00:05;23.19;63.33
66144;SHT31;52947;50.842;6.084;2023-10-09T12:02:52;22.80;63.15
66144;SHT31;52947;50.842;6.084;2023-10-09T12:05:20;23.07;63.94
66144;SHT31;52947;50.842;6.084;2023-10-09T12:07:49;22.94;63.85
66144;SHT31;52947;50.842;6.084;2023-10-09T12:10:23;22.83;63.15
66144;SHT31;52947;50.842;6.084;2023-10-09T12:12:53;23.00;63.79
66144;SHT31;52947;50.842;6.084;2023-10-09T12:15:21;22.86;63.66
66144;SHT31;52947;50.842;6.084;2023-10-09T12:17:49;22.94;64.15
66144;SHT31;52947;50.842;6.084;2023-10-09T12:20:20;23.15;64.46
66144;SHT31;52947;50.842;6.084;2023-10-09T12:22:58;23.19;64.84
66144;SHT31;52947;50.842;6.084;2023-10-09T12:25:28;23.44;64.96
66144;SHT31;52947;50.842;6.084;2023-10-09T12:27:58;23.35;63.52
66144;SHT31;52947;50.842;6.084;2023-10-09T12:30:28;23.49;63.56
66144;SHT31;52947;50.842;6.084;2023-10-09T12:32:57;23.39;63.22
66144;SHT31;52947;50.842;6.084;2023-10-09T12:35:26;23.31;61.71
66144;SHT31;52947;50.842;6.084;2023-10-09T12:37:54;23.14;62.46
66144;SHT31;52947;50.842;6.084;2023-10-09T12:40:23;23.08;62.96
66144;SHT31;52947;50.842;6.084;2023-10-09T12:42:58;23.08;62.60
66144;SHT31;52947;50.842;6.084;2023-10-09T12:45:26;23.03;62.67
66144;SHT31;52947;50.842;6.084;2023-10-09T12:47:59;22.97;62.51
66144;SHT31;52947;50.842;6.084;2023-10-09T12:50:30;22.87;61.95
66144;SHT31;52947;50.842;6.084;2023-10-09T12:53:01;22.74;62.73
66144;SHT31;52947;50.842;6.084;2023-10-09T12:55:35;22.57;62.57
66144;SHT31;52947;50.842;6.084;2023-10-09T12:58:09;22.61;63.56
66144;SHT31;52947;50.842;6.084;2023-10-09T13:00:42;22.70;63.87
66144;SHT31;52947;50.842;6.084;2023-10-09T13:03:15;22.71;62.95
66144;SHT31;52947;50.842;6.084;2023-10-09T13:05:51;22.59;63.04
66144;SHT31;52947;50.842;6.084;2023-10-09T13:08:24;22.52;63.74
66144;SHT31;52947;50.842;6.084;2023-10-09T13:11:02;22.49;63.14
66144;SHT31;52947;50.842;6.084;2023-10-09T13:13:40;22.45;62.69
66144;SHT31;52947;50.842;6.084;2023-10-09T13:16:10;22.36;63.04
66144;SHT31;52947;50.842;6.084;2023-10-09T13:18:41;22.29;63.01
66144;SHT31;52947;50.842;6.084;2023-10-09T13:21:20;22.25;64.12
66144;SHT31;52947;50.842;6.084;2023-10-09T13:23:49;22.08;64.61
66144;SHT31;52947;50.842;6.084;2023-10-09T13:26:19;22.10;65.16
66144;SHT31;52947;50.842;6.084;2023-10-09T13:29:02;22.09;65.37
66144;SHT31;52947;50.842;6.084;2023-10-09T13:31:31;22.04;66.03
66144;SHT31;52947;50.842;6.084;2023-10-09T13:34:02;22.02;65.12
66144;SHT31;52947;50.842;6.084;2023-10-09T13:36:33;21.86;65.49
66144;SHT31;52947;50.842;6.084;2023-10-09T13:39:03;21.69;66.13
66144;SHT31;52947;50.842;6.084;2023-10-09T13:41:45;21.68;66.41
66144;SHT31;52947;50.842;6.084;2023-10-09T13:44:15;21.73;66.59
66144;SHT31;52947;50.842;6.084;2023-10-09T13:46:43;21.78;66.97
66144;SHT31;52947;50.842;6.084;2023-10-09T13:49:12;21.91;67.20
66144;SHT31;52947;50.842;6.084;2023-10-09T13:51:41;21.71;66.93
66144;SHT31;52947;50.842;6.084;2023-10-09T13:54:12;21.65;66.72
66144;SHT31;52947;50.842;6.084;2023-10-09T13:56:48;21.57;67.37
66144;SHT31;52947;50.842;6.084;2023-10-09T13:59:21;21.71;66.86
66144;SHT31;52947;50.842;6.084;2023-10-09T14:01:52;21.71;67.03
66144;SHT31;52947;50.842;6.084;2023-10-09T14:04:22;21.73;66.82
66144;SHT31;52947;50.842;6.084;2023-10-09T14:06:50;21.67;67.37
66144;SHT31;52947;50.842;6.084;2023-10-09T14:09:24;21.53;67.62
66144;SHT31;52947;50.842;6.084;2023-10-09T14:11:59;21.47;68.13
66144;SHT31;52947;50.842;6.084;2023-10-09T14:14:36;21.51;68.57
66144;SHT31;52947;50.842;6.084;2023-10-09T14:17:05;21.45;68.07
66144;SHT31;52947;50.842;6.084;2023-10-09T14:19:39;21.55;68.16
66144;SHT31;52947;50.842;6.084;2023-10-09T14:22:13;21.61;67.89
66144;SHT31;52947;50.842;6.084;2023-10-09T14:24:43;21.47;68.95
66144;SHT31;52947;50.842;6.084;2023-10-09T14:27:12;21.57;68.39
66144;SHT31;52947;50.842;6.084;2023-10-09T14:29:45;21.43;68.53
66144;SHT31;52947;50.842;6.084;2023-10-09T14:32:14;21.19;68.78
66144;SHT31;52947;50.842;6.084;2023-10-09T14:34:44;21.20;69.65
66144;SHT31;52947;50.842;6.084;2023-10-09T14:37:33;21.14;70.01
66144;SHT31;52947;50.842;6.084;2023-10-09T14:40:02;21.14;69.89
66144;SHT31;52947;50.842;6.084;2023-10-09T14:42:39;21.20;69.70
66144;SHT31;52947;50.842;6.084;2023-10-09T14:45:12;21.24;69.91
66144;SHT31;52947;50.842;6.084;2023-10-09T14:47:42;21.22;70.04
66144;SHT31;52947;50.842;6.084;2023-10-09T14:50:10;21.27;70.36
66144;SHT31;52947;50.842;6.084;2023-10-09T14:52:40;21.28;70.30
66144;SHT31;52947;50.842;6.084;2023-10-09T14:55:09;21.26;70.85
66144;SHT31;52947;50.842;6.084;2023-10-09T14:57:37;21.17;71.03
66144;SHT31;52947;50.842;6.084;2023-10-09T15:00:06;21.13;71.06
66144;SHT31;52947;50.842;6.084;2023-10-09T15:02:42;21.06;71.08
66144;SHT31;52947;50.842;6.084;2023-10-09T15:05:10;20.97;71.20
66144;SHT31;52947;50.842;6.084;2023-10-09T15:07:39;20.87;71.38
66144;SHT31;52947;50.842;6.084;2023-10-09T15:10:11;20.87;71.04
66144;SHT31;52947;50.842;6.084;2023-10-09T15:12:42;20.76;71.07
66144;SHT31;52947;50.842;6.084;2023-10-09T15:15:14;20.87;71.40
66144;SHT31;52947;50.842;6.084;2023-10-09T15:17:43;20.96;71.04
66144;SHT31;52947;50.842;6.084;2023-10-09T15:20:15;20.87;70.45
66144;SHT31;52947;50.842;6.084;2023-10-09T15:22:44;20.99;71.87
66144;SHT31;52947;50.842;6.084;2023-10-09T15:25:13;20.97;70.46
66144;SHT31;52947;50.842;6.084;2023-10-09T15:27:42;21.04;71.33
66144;SHT31;52947;50.842;6.084;2023-10-09T15:30:11;21.06;71.60
66144;SHT31;52947;50.842;6.084;2023-10-09T15:32:43;20.99;71.41
66144;SHT31;52947;50.842;6.084;2023-10-09T15:35:12;20.99;72.17
66144;SHT31;52947;50.842;6.084;2023-10-09T15:37:41;20.76;71.14
66144;SHT31;52947;50.842;6.084;2023-10-09T15:40:10;20.71;71.81
66144;SHT31;52947;50.842;6.084;2023-10-09T15:42:42;20.62;71.39
66144;SHT31;52947;50.842;6.084;2023-10-09T15:45:17;20.61;71.35
66144;SHT31;52947;50.842;6.084;2023-10-09T15:47:48;20.48;71.11
66144;SHT31;52947;50.842;6.084;2023-10-09T15:50:18;20.41;71.43
66144;SHT31;52947;50.842;6.084;2023-10-09T15:52:46;20.42;71.78
66144;SHT31;52947;50.842;6.084;2023-10-09T15:55:18;20.42;71.71
66144;SHT31;52947;50.842;6.084;2023-10-09T15:57:48;20.45;71.81
66144;SHT31;52947;50.842;6.084;2023-10-09T16:00:16;20.44;72.47
66144;SHT31;52947;50.842;6.084;2023-10-09T16:02:48;20.38;71.63
66144;SHT31;52947;50.842;6.084;2023-10-09T16:05:20;20.26;71.65
66144;SHT31;52947;50.842;6.084;2023-10-09T16:07:53;20.17;72.05
66144;SHT31;52947;50.842;6.084;2023-10-09T16:10:22;20.00;72.30
66144;SHT31;52947;50.842;6.084;2023-10-09T16:12:50;19.93;72.90
66144;SHT31;52947;50.842;6.084;2023-10-09T16:15:18;19.88;72.93
66144;SHT31;52947;50.842;6.084;2023-10-09T16:17:48;19.80;72.75
66144;SHT31;52947;50.842;6.084;2023-10-09T16:20:26;19.73;72.93